createdAt,value
2022-12-11T00:01:18.755Z,95316.59
2022-12-11T00:03:47.849Z,95316.59
2022-12-11T00:06:18.748Z,95574.19
2022-12-11T00:08:47.989Z,95831.81
2022-12-11T00:11:18.428Z,96089.47
2022-12-11T00:13:48.258Z,96089.47
2022-12-11T00:16:17.139Z,95831.81
2022-12-11T00:18:45.629Z,95574.19
2022-12-11T00:21:16.068Z,95831.81
2022-12-11T00:23:44.612Z,96089.47
2022-12-11T00:26:15.805Z,96089.47
2022-12-11T00:28:46.337Z,96089.47
2022-12-11T00:31:16.846Z,96089.47
2022-12-11T00:33:48.853Z,96347.13
2022-12-11T00:36:18.912Z,96347.13
2022-12-11T00:38:48.147Z,96604.81
2022-12-11T00:41:16.834Z,96604.81
2022-12-11T00:43:47.118Z,96347.13
2022-12-11T00:46:15.795Z,96604.81
2022-12-11T00:48:44.378Z,96862.50
2022-12-11T00:51:12.918Z,96862.50
2022-12-11T00:53:41.380Z,97120.22
2022-12-11T00:56:15.001Z,97120.22
2022-12-11T00:58:43.830Z,97120.22
2022-12-11T01:01:19.620Z,97120.22
2022-12-11T01:03:48.313Z,97120.22
2022-12-11T01:06:18.600Z,97377.97
2022-12-11T01:08:47.757Z,97377.97
2022-12-11T01:11:16.857Z,97377.97
2022-12-11T01:13:46.361Z,97635.72
2022-12-11T01:16:17.263Z,96862.50
2022-12-11T01:18:45.828Z,97120.22
2022-12-11T01:21:15.240Z,97635.72
2022-12-11T01:23:43.943Z,97893.50
2022-12-11T01:26:15.643Z,97635.72
2022-12-11T01:28:44.584Z,97635.72
2022-12-11T01:31:16.172Z,97635.72
2022-12-11T01:33:44.929Z,97635.72
2022-12-11T01:36:15.133Z,97377.97
2022-12-11T01:38:44.114Z,97635.72
2022-12-11T01:41:13.095Z,97893.50
2022-12-11T01:44:01.504Z,97635.72
2022-12-11T01:46:32.801Z,97635.72
2022-12-11T01:49:02.462Z,97377.97
2022-12-11T01:51:34.634Z,97635.72
2022-12-11T01:54:08.810Z,97893.50
2022-12-11T01:56:39.053Z,97635.72
2022-12-11T01:59:09.671Z,97377.97
2022-12-11T02:01:44.305Z,97635.72
2022-12-11T02:04:17.707Z,97377.97
2022-12-11T02:06:48.947Z,97635.72
2022-12-11T02:09:21.725Z,97120.22
2022-12-11T02:12:01.869Z,97120.22
2022-12-11T02:14:35.659Z,96862.50
2022-12-11T02:17:12.448Z,96604.81
2022-12-11T02:19:59.156Z,96862.50
2022-12-11T02:22:39.703Z,96604.81
2022-12-11T02:25:18.383Z,97120.22
2022-12-11T02:27:56.526Z,96862.50
2022-12-11T02:30:27.037Z,96604.81
2022-12-11T02:32:57.731Z,96862.50
2022-12-11T02:35:30.807Z,96089.47
2022-12-11T02:38:03.946Z,96347.13
2022-12-11T02:40:36.774Z,95831.81
2022-12-11T02:43:09.513Z,96347.13
2022-12-11T02:45:42.367Z,95831.81
2022-12-11T02:48:13.367Z,95831.81
2022-12-11T02:50:46.174Z,95316.59
2022-12-11T02:53:19.441Z,95316.59
2022-12-11T02:55:51.288Z,95316.59
2022-12-11T02:58:23.504Z,95831.81
2022-12-11T03:00:53.577Z,95574.19
2022-12-11T03:03:23.706Z,95574.19
2022-12-11T03:05:52.230Z,95316.59
2022-12-11T03:08:20.976Z,94801.44
2022-12-11T03:10:49.620Z,94286.38
2022-12-11T03:13:21.917Z,94028.84
2022-12-11T03:16:01.724Z,94286.38
2022-12-11T03:18:36.318Z,94543.91
2022-12-11T03:21:09.476Z,94028.84
2022-12-11T03:23:45.993Z,94286.38
2022-12-11T03:26:18.630Z,94028.84
2022-12-11T03:28:50.818Z,94028.84
2022-12-11T03:31:29.671Z,94286.38
2022-12-11T03:34:03.995Z,94286.38
2022-12-11T03:36:36.074Z,94543.91
2022-12-11T03:39:08.414Z,94543.91
2022-12-11T03:41:38.607Z,93771.38
2022-12-11T03:44:08.170Z,93771.38
2022-12-11T03:46:40.568Z,94286.38
2022-12-11T03:49:15.584Z,94543.91
2022-12-11T03:51:46.787Z,94028.84
2022-12-11T03:54:16.617Z,93771.38
2022-12-11T03:56:46.727Z,94028.84
2022-12-11T03:59:15.255Z,93771.38
2022-12-11T04:01:45.140Z,93256.44
2022-12-11T04:04:13.695Z,92999.00
2022-12-11T04:06:41.952Z,93513.91
2022-12-11T04:09:10.375Z,93771.38
2022-12-11T04:11:39.696Z,92999.00
2022-12-11T04:14:27.714Z,93256.44
2022-12-11T04:16:58.228Z,92484.19
2022-12-11T04:19:44.444Z,92999.00
2022-12-11T04:22:30.946Z,92999.00
2022-12-11T04:24:59.240Z,93513.91
2022-12-11T04:27:45.407Z,93256.44
2022-12-11T04:30:16.742Z,93513.91
2022-12-11T04:32:46.450Z,93256.44
2022-12-11T04:35:15.251Z,92999.00
2022-12-11T04:37:44.141Z,93256.44
2022-12-11T04:40:15.001Z,92999.00
2022-12-11T04:42:43.693Z,93256.44
2022-12-11T04:45:13.198Z,93256.44
2022-12-11T04:47:42.843Z,92741.59
2022-12-11T04:50:14.481Z,92741.59
2022-12-11T04:52:43.485Z,92999.00
2022-12-11T04:55:13.562Z,92226.81
2022-12-11T04:57:42.269Z,92741.59
2022-12-11T05:00:12.987Z,91454.81
2022-12-11T05:02:42.892Z,91454.81
2022-12-11T05:05:13.419Z,91969.47
2022-12-11T05:07:42.315Z,90682.97
2022-12-11T05:10:11.427Z,91712.13
2022-12-11T05:12:39.892Z,91454.81
2022-12-11T05:15:09.787Z,91712.13
2022-12-11T05:17:38.382Z,90940.22
2022-12-11T05:20:08.060Z,89911.31
2022-12-11T05:22:38.219Z,89654.13
2022-12-11T05:25:08.109Z,89396.97
2022-12-11T05:27:36.711Z,90168.50
2022-12-11T05:30:06.097Z,90425.72
2022-12-11T05:32:34.576Z,90940.22
2022-12-11T05:35:03.821Z,89396.97
2022-12-11T05:37:34.326Z,90425.72
2022-12-11T05:40:06.365Z,90682.97
2022-12-11T05:42:35.260Z,90682.97
2022-12-11T05:45:03.686Z,90425.72
2022-12-11T05:47:32.757Z,89911.31
2022-12-11T05:50:01.516Z,90425.72
2022-12-11T05:52:30.718Z,90940.22
2022-12-11T05:54:59.549Z,90168.50
2022-12-11T05:57:29.298Z,90425.72
2022-12-11T05:59:57.628Z,90425.72
2022-12-11T06:02:26.114Z,90682.97
2022-12-11T06:04:54.770Z,90425.72
2022-12-11T06:07:23.093Z,90425.72
2022-12-11T06:09:51.511Z,90682.97
2022-12-11T06:12:20.044Z,90168.50
2022-12-11T06:14:50.006Z,90682.97
2022-12-11T06:17:18.249Z,90682.97
2022-12-11T06:19:46.655Z,90682.97
2022-12-11T06:22:15.162Z,90168.50
2022-12-11T06:24:43.434Z,90168.50
2022-12-11T06:27:11.699Z,89139.81
2022-12-11T06:29:40.136Z,89139.81
2022-12-11T06:32:09.851Z,88368.50
2022-12-11T06:34:38.288Z,88882.69
2022-12-11T06:37:07.477Z,88882.69
2022-12-11T06:39:35.950Z,89139.81
2022-12-11T06:42:04.342Z,89139.81
2022-12-11T06:44:33.012Z,89139.81
2022-12-11T06:47:01.377Z,87854.38
2022-12-11T06:49:31.756Z,87597.34
2022-12-11T06:52:00.137Z,88111.41
2022-12-11T06:54:28.991Z,88111.41
2022-12-11T06:56:57.282Z,87340.31
2022-12-11T06:59:25.647Z,87854.38
2022-12-11T07:01:54.044Z,87597.34
2022-12-11T07:04:24.766Z,86055.56
2022-12-11T07:06:54.976Z,84000.91
2022-12-11T07:09:24.151Z,82460.72
2022-12-11T07:11:52.833Z,81690.91
2022-12-11T07:14:21.687Z,79895.28
2022-12-11T07:16:50.070Z,78869.66
2022-12-11T07:19:18.672Z,78869.66
2022-12-11T07:21:47.317Z,77075.53
2022-12-11T07:24:17.131Z,75794.56
2022-12-11T07:26:45.463Z,72978.16
2022-12-11T07:29:13.962Z,75538.44
2022-12-11T07:31:42.673Z,75282.31
2022-12-11T07:34:13.774Z,70931.31
2022-12-11T07:36:42.339Z,67260.47
2022-12-11T07:39:12.503Z,69576.78
2022-12-11T07:41:42.526Z,62018.69
2022-12-11T07:44:12.404Z,60914.72
2022-12-11T07:46:41.084Z,61384.97
2022-12-11T07:49:09.864Z,58799.44
2022-12-11T07:51:39.562Z,59689.59
2022-12-11T07:54:11.275Z,59257.44
2022-12-11T07:56:43.676Z,58417.16
2022-12-11T07:59:14.081Z,58630.19
2022-12-11T08:01:42.748Z,57794.03
2022-12-11T08:04:15.605Z,57885.63
2022-12-11T08:06:44.766Z,57931.41
2022-12-11T08:09:20.702Z,57825.91
2022-12-11T08:11:50.942Z,58307.66
2022-12-11T08:14:21.332Z,57706.47
2022-12-11T08:16:50.337Z,57242.69
2022-12-11T08:19:19.166Z,57391.97
2022-12-11T08:21:47.652Z,57282.50
2022-12-11T08:24:20.298Z,56910.34
2022-12-11T08:26:49.067Z,56952.13
2022-12-11T08:29:17.465Z,57043.69
2022-12-11T08:31:47.436Z,56832.72
2022-12-11T08:34:16.012Z,56928.25
2022-12-11T08:36:45.495Z,56689.44
2022-12-11T08:39:13.832Z,56390.97
2022-12-11T08:41:42.322Z,56550.16
2022-12-11T08:44:16.681Z,56653.63
2022-12-11T08:46:47.316Z,56279.56
2022-12-11T08:49:15.809Z,56237.78
2022-12-11T08:51:44.184Z,56520.31
2022-12-11T08:54:12.894Z,56343.22
2022-12-11T08:56:41.226Z,56311.38
2022-12-11T08:59:09.706Z,56357.16
2022-12-11T09:01:38.131Z,56534.25
2022-12-11T09:04:08.274Z,56293.47
2022-12-11T09:06:36.565Z,56118.38
2022-12-11T09:09:05.828Z,56024.88
2022-12-11T09:11:36.065Z,56213.91
2022-12-11T09:14:07.666Z,56494.44
2022-12-11T09:16:40.300Z,56693.44
2022-12-11T09:19:13.764Z,56820.78
2022-12-11T09:21:43.560Z,56906.38
2022-12-11T09:24:14.138Z,57041.69
2022-12-11T09:26:43.285Z,57025.78
2022-12-11T09:29:12.179Z,57242.69
2022-12-11T09:31:40.481Z,57242.69
2022-12-11T09:34:13.322Z,57664.66
2022-12-11T09:36:44.274Z,57961.25
2022-12-11T09:39:15.081Z,57752.25
2022-12-11T09:41:54.227Z,57596.97
2022-12-11T09:44:31.629Z,57859.75
2022-12-11T09:47:01.076Z,57628.84
2022-12-11T09:49:36.519Z,57835.84
2022-12-11T09:52:12.807Z,58082.69
2022-12-11T09:54:49.293Z,58339.50
2022-12-11T09:57:30.729Z,57704.47
2022-12-11T10:00:11.487Z,57971.22
2022-12-11T10:02:57.316Z,57680.59
2022-12-11T10:05:37.483Z,57616.88
2022-12-11T10:08:14.066Z,57638.78
2022-12-11T10:10:45.488Z,57579.06
2022-12-11T10:13:24.310Z,57593.00
2022-12-11T10:15:57.872Z,57533.28
2022-12-11T10:18:29.296Z,57370.09
2022-12-11T10:21:03.499Z,57632.81
2022-12-11T10:23:37.625Z,57883.63
2022-12-11T10:26:09.376Z,57975.19
2022-12-11T10:28:37.894Z,57616.88
2022-12-11T10:31:17.243Z,57696.50
2022-12-11T10:33:55.589Z,57784.09
2022-12-11T10:36:29.256Z,57616.88
2022-12-11T10:38:57.975Z,56896.41
2022-12-11T10:41:38.128Z,56683.47
2022-12-11T10:44:17.759Z,56991.94
2022-12-11T10:46:47.323Z,56993.94
2022-12-11T10:49:24.780Z,57083.47
2022-12-11T10:51:56.258Z,56870.53
2022-12-11T10:54:34.969Z,57155.13
2022-12-11T10:57:05.635Z,57069.56
2022-12-11T10:59:40.190Z,56858.59
2022-12-11T11:02:23.197Z,56798.91
2022-12-11T11:04:52.617Z,56920.28
2022-12-11T11:07:24.791Z,56983.97
2022-12-11T11:10:06.069Z,56745.16
2022-12-11T11:12:40.264Z,56518.31
2022-12-11T11:15:13.620Z,56631.75
2022-12-11T11:17:54.586Z,56538.22
2022-12-11T11:20:26.272Z,56460.63
2022-12-11T11:22:58.983Z,56693.44
2022-12-11T11:25:29.073Z,56576.03
2022-12-11T11:27:59.844Z,56876.50
2022-12-11T11:30:31.375Z,56420.81
2022-12-11T11:33:03.545Z,56398.94
2022-12-11T11:35:34.089Z,56323.31
2022-12-11T11:38:12.934Z,56211.91
2022-12-11T11:40:45.992Z,56267.63
2022-12-11T11:43:22.642Z,56196.00
2022-12-11T11:45:56.446Z,56180.06
2022-12-11T11:48:40.860Z,56269.59
2022-12-11T11:51:16.557Z,56144.25
2022-12-11T11:53:50.915Z,56084.56
2022-12-11T11:56:23.164Z,56211.91
2022-12-11T11:58:59.424Z,56192.00
2022-12-11T12:01:28.357Z,56062.69
2022-12-11T12:03:57.608Z,56096.50
2022-12-11T12:06:56.932Z,55901.53
2022-12-11T12:09:40.445Z,55903.53
2022-12-11T12:12:22.738Z,55935.34
2022-12-11T12:15:18.374Z,55823.94
2022-12-11T12:17:55.952Z,55859.75
2022-12-11T12:20:32.207Z,55758.28
2022-12-11T12:23:24.246Z,55702.59
2022-12-11T12:26:00.512Z,55901.53
2022-12-11T12:28:37.297Z,55831.91
2022-12-11T12:31:20.621Z,55710.56
2022-12-11T12:33:59.855Z,55941.31
2022-12-11T12:36:35.694Z,55869.69
2022-12-11T12:39:12.790Z,55849.81
2022-12-11T12:41:53.781Z,55877.66
2022-12-11T12:44:25.189Z,55829.91
2022-12-11T12:47:01.277Z,55634.94
2022-12-11T12:49:37.072Z,55686.69
2022-12-11T12:52:07.666Z,55770.22
2022-12-11T12:54:37.472Z,55627.00
2022-12-11T12:57:08.323Z,55563.34
2022-12-11T12:59:36.676Z,55609.09
2022-12-11T13:02:06.592Z,55712.53
2022-12-11T13:04:55.941Z,55682.69
2022-12-11T13:07:30.167Z,55666.78
2022-12-11T13:10:01.826Z,55605.13
2022-12-11T13:12:43.115Z,55722.47
2022-12-11T13:15:37.462Z,55595.16
2022-12-11T13:18:23.816Z,55646.88
2022-12-11T13:20:53.518Z,55619.03
2022-12-11T13:23:29.338Z,55658.81
2022-12-11T13:25:59.889Z,55638.94
2022-12-11T13:28:46.984Z,55656.84
2022-12-11T13:31:35.124Z,55515.59
2022-12-11T13:34:25.191Z,55465.88
2022-12-11T13:36:55.332Z,55491.72
2022-12-11T13:39:27.727Z,55575.28
2022-12-11T13:42:01.131Z,55519.56
2022-12-11T13:44:33.029Z,55499.69
2022-12-11T13:47:04.337Z,55457.91
2022-12-11T13:49:37.194Z,55436.03
2022-12-11T13:52:06.753Z,55404.19
2022-12-11T13:54:37.568Z,55396.25
2022-12-11T13:57:17.718Z,55447.97
2022-12-11T13:59:53.211Z,55436.03
2022-12-11T14:02:26.938Z,55384.31
2022-12-11T14:04:58.054Z,55346.50
2022-12-11T14:07:29.812Z,55438.03
2022-12-11T14:10:02.663Z,55320.66
2022-12-11T14:12:32.879Z,55292.81
2022-12-11T14:15:04.723Z,55292.81
2022-12-11T14:17:35.532Z,55308.72
2022-12-11T14:20:07.803Z,55352.47
2022-12-11T14:22:36.781Z,55326.63
2022-12-11T14:25:21.880Z,55207.28
2022-12-11T14:27:52.575Z,55245.06
2022-12-11T14:30:27.559Z,55276.91
2022-12-11T14:32:59.621Z,55286.84
2022-12-11T14:35:37.061Z,55268.94
2022-12-11T14:38:14.387Z,55251.03
2022-12-11T14:40:46.475Z,55264.97
2022-12-11T14:43:21.079Z,55308.72
2022-12-11T14:45:55.500Z,55304.75
2022-12-11T14:48:27.254Z,55292.81
2022-12-11T14:50:58.918Z,55356.47
2022-12-11T14:53:31.281Z,55368.41
2022-12-11T14:56:04.376Z,55366.41
2022-12-11T14:58:35.003Z,55382.31
2022-12-11T15:01:07.042Z,55366.41
2022-12-11T15:03:37.088Z,55338.56
2022-12-11T15:06:24.581Z,55358.44
2022-12-11T15:08:53.466Z,55276.91
2022-12-11T15:11:22.907Z,55350.50
2022-12-11T15:13:54.603Z,55326.63
2022-12-11T15:16:27.895Z,55344.53
2022-12-11T15:18:58.878Z,55388.28
2022-12-11T15:21:30.901Z,55394.25
2022-12-11T15:24:01.091Z,55380.34
2022-12-11T15:26:38.300Z,55467.84
2022-12-11T15:29:23.840Z,55447.97
2022-12-11T15:32:02.704Z,55390.28
2022-12-11T15:34:35.699Z,55410.16
2022-12-11T15:37:04.377Z,55479.78
2022-12-11T15:39:33.090Z,55463.88
2022-12-11T15:42:01.449Z,55523.56
2022-12-11T15:44:29.804Z,55525.53
2022-12-11T15:46:58.160Z,55553.41
2022-12-11T15:49:28.060Z,55511.63
2022-12-11T15:51:56.361Z,55591.19
2022-12-11T15:54:24.765Z,55555.38
2022-12-11T15:56:53.225Z,55601.13
2022-12-11T15:59:21.930Z,55573.28
2022-12-11T16:01:51.000Z,55557.38
2022-12-11T16:04:19.628Z,55609.09
2022-12-11T16:06:49.413Z,55676.72
2022-12-11T16:09:17.983Z,55662.81
2022-12-11T16:11:46.492Z,55686.69
2022-12-11T16:14:15.046Z,55662.81
2022-12-11T16:16:43.467Z,55634.94
2022-12-11T16:19:11.888Z,55680.72
2022-12-11T16:21:40.291Z,55690.66
2022-12-11T16:24:10.228Z,55722.47
2022-12-11T16:26:38.693Z,55692.66
2022-12-11T16:29:07.074Z,55817.97
2022-12-11T16:31:35.457Z,55710.56
2022-12-11T16:34:03.799Z,55730.44
2022-12-11T16:36:32.252Z,55722.47
2022-12-11T16:39:00.664Z,55786.16
2022-12-11T16:41:30.380Z,55758.28
2022-12-11T16:43:58.765Z,55788.13
2022-12-11T16:46:27.185Z,55760.28
2022-12-11T16:48:55.559Z,55662.81
2022-12-11T16:51:24.267Z,55686.69
2022-12-11T16:53:52.871Z,55782.16
2022-12-11T16:56:21.344Z,55786.16
2022-12-11T16:58:51.191Z,55762.28
2022-12-11T17:01:19.622Z,55784.16
2022-12-11T17:03:48.139Z,55790.13
2022-12-11T17:06:18.462Z,55790.13
2022-12-11T17:08:47.385Z,55790.13
2022-12-11T17:11:17.868Z,55790.13
2022-12-11T17:13:46.776Z,55841.84
2022-12-11T17:16:18.298Z,55728.44
2022-12-11T17:18:46.789Z,55798.09
2022-12-11T17:21:17.533Z,55748.34
2022-12-11T17:23:46.278Z,55756.31
2022-12-11T17:26:15.535Z,55776.19
2022-12-11T17:28:44.194Z,55728.44
2022-12-11T17:31:16.627Z,55778.19
2022-12-11T17:33:47.542Z,55819.97
2022-12-11T17:36:17.885Z,55810.03
2022-12-11T17:38:46.610Z,55893.56
2022-12-11T17:41:20.449Z,55853.78
2022-12-11T17:43:50.243Z,55871.69
2022-12-11T17:46:19.662Z,55817.97
2022-12-11T17:48:50.037Z,55857.75
2022-12-11T17:51:24.088Z,55935.34
2022-12-11T17:53:55.400Z,55985.09
2022-12-11T17:56:24.323Z,56016.94
2022-12-11T17:58:52.904Z,55993.06
2022-12-11T18:01:21.467Z,55989.06
2022-12-11T18:03:51.350Z,55975.16
2022-12-11T18:06:19.814Z,56024.88
2022-12-11T18:08:48.806Z,56020.91
2022-12-11T18:11:19.164Z,55929.38
2022-12-11T18:13:48.860Z,55945.31
2022-12-11T18:16:19.407Z,55971.16
2022-12-11T18:18:49.290Z,55959.22
2022-12-11T18:21:22.759Z,55985.09
2022-12-11T18:23:51.596Z,55973.16
2022-12-11T18:26:21.678Z,55939.34
2022-12-11T18:28:52.011Z,55897.56
2022-12-11T18:31:21.813Z,55953.25
2022-12-11T18:33:50.705Z,56024.88
2022-12-11T18:36:21.495Z,56064.69
2022-12-11T18:38:50.778Z,56040.78
2022-12-11T18:41:20.499Z,56130.31
2022-12-11T18:43:49.374Z,56098.50
2022-12-11T18:46:19.886Z,56122.38
2022-12-11T18:48:49.566Z,56034.81
2022-12-11T18:51:22.696Z,55915.47
2022-12-11T18:53:52.020Z,55919.44
2022-12-11T18:56:21.754Z,55929.38
2022-12-11T18:58:52.153Z,55953.25
2022-12-11T19:01:22.769Z,55981.13
2022-12-11T19:03:51.822Z,56108.44
2022-12-11T19:06:24.503Z,56116.41
2022-12-11T19:08:53.094Z,56084.56
2022-12-11T19:11:24.675Z,56114.41
2022-12-11T19:13:53.867Z,56184.06
2022-12-11T19:16:24.839Z,56211.91
2022-12-11T19:18:54.209Z,56144.25
2022-12-11T19:21:23.944Z,56018.91
2022-12-11T19:23:52.377Z,56020.91
2022-12-11T19:26:23.763Z,56054.72
2022-12-11T19:28:53.449Z,56080.59
2022-12-11T19:31:24.051Z,56140.28
2022-12-11T19:33:52.732Z,56162.16
2022-12-11T19:36:24.994Z,56154.22
2022-12-11T19:38:57.958Z,56080.59
2022-12-11T19:41:29.604Z,56110.44
2022-12-11T19:43:59.865Z,56160.19
2022-12-11T19:46:29.621Z,56174.09
2022-12-11T19:48:59.978Z,56134.31
2022-12-11T19:51:34.680Z,56120.38
2022-12-11T19:54:03.789Z,56078.59
2022-12-11T19:56:33.012Z,56124.34
2022-12-11T19:59:03.270Z,56136.28
2022-12-11T20:01:33.601Z,56052.72
2022-12-11T20:04:03.765Z,55977.13
2022-12-11T20:06:35.692Z,56084.56
2022-12-11T20:09:06.371Z,56148.22
2022-12-11T20:11:36.202Z,56106.44
2022-12-11T20:14:04.860Z,55995.03
2022-12-11T20:17:02.095Z,55947.28
2022-12-11T20:19:22.402Z,55925.41
2022-12-11T20:21:52.323Z,55919.44
2022-12-11T20:24:21.269Z,55953.25
2022-12-11T20:26:49.960Z,56028.84
2022-12-11T20:29:18.451Z,56096.50
2022-12-11T20:31:47.059Z,56008.97
2022-12-11T20:34:15.528Z,55895.56
2022-12-11T20:36:44.371Z,55855.78
2022-12-11T20:39:15.153Z,55959.22
2022-12-11T20:41:43.887Z,55887.59
2022-12-11T20:44:12.269Z,55917.44
2022-12-11T20:46:40.916Z,56016.94
2022-12-11T20:49:13.242Z,56001.00
2022-12-11T20:51:42.291Z,55907.50
2022-12-11T20:54:10.813Z,55865.72
2022-12-11T20:56:40.863Z,55867.72
2022-12-11T20:59:13.518Z,55891.59
2022-12-11T21:01:42.441Z,55849.81
2022-12-11T21:04:11.650Z,55817.97
2022-12-11T21:06:42.122Z,55881.63
2022-12-11T21:09:13.936Z,55847.81
2022-12-11T21:11:43.929Z,55758.28
2022-12-11T21:14:12.395Z,55780.19
2022-12-11T21:16:41.018Z,55740.38
2022-12-11T21:19:15.124Z,55766.25
2022-12-11T21:21:46.488Z,55750.34
2022-12-11T21:24:17.496Z,55708.56
2022-12-11T21:26:48.130Z,55676.72
2022-12-11T21:29:17.177Z,55644.91
2022-12-11T21:31:46.156Z,55728.44
2022-12-11T21:34:16.047Z,55648.88
2022-12-11T21:36:47.007Z,55760.28
2022-12-11T21:39:16.491Z,55706.56
2022-12-11T21:41:45.017Z,55712.53
2022-12-11T21:45:25.879Z,55696.63
2022-12-11T21:47:03.357Z,55682.69
2022-12-11T21:49:31.781Z,55698.63
2022-12-11T21:52:00.486Z,55754.31
2022-12-11T21:54:28.946Z,55810.03
2022-12-11T21:56:58.166Z,55666.78
2022-12-11T21:59:28.715Z,55720.50
2022-12-11T22:01:57.661Z,55714.53
2022-12-11T22:04:28.603Z,55662.81
2022-12-11T22:06:57.057Z,55662.81
2022-12-11T22:09:25.679Z,55636.94
2022-12-11T22:11:58.360Z,55611.09
2022-12-11T22:14:30.982Z,55625.00
2022-12-11T22:17:00.847Z,55615.06
2022-12-11T22:19:32.716Z,55650.88
2022-12-11T22:22:01.555Z,55652.84
2022-12-11T22:24:30.028Z,55658.81
2022-12-11T22:26:58.566Z,55670.75
2022-12-11T22:29:28.791Z,55714.53
2022-12-11T22:31:57.744Z,55708.56
2022-12-11T22:34:26.213Z,55638.94
2022-12-11T22:36:54.690Z,55750.34
2022-12-11T22:39:24.651Z,55754.31
2022-12-11T22:41:53.167Z,55760.28
2022-12-11T22:44:22.918Z,55726.47
2022-12-11T22:46:52.710Z,55758.28
2022-12-11T22:49:21.453Z,55730.44
2022-12-11T22:51:50.304Z,55730.44
2022-12-11T22:54:18.848Z,55748.34
2022-12-11T22:56:47.259Z,55708.56
2022-12-11T22:59:15.736Z,55738.41
2022-12-11T23:01:44.333Z,55742.38
2022-12-11T23:04:14.218Z,55754.31
2022-12-11T23:06:42.577Z,55698.63
2022-12-11T23:09:12.214Z,55752.31
2022-12-11T23:11:41.389Z,55774.22
2022-12-11T23:14:15.102Z,55835.88
2022-12-11T23:16:44.031Z,55913.47
2022-12-11T23:19:14.762Z,55933.38
2022-12-11T23:21:43.476Z,55949.28
2022-12-11T23:24:13.153Z,55857.75
2022-12-11T23:26:41.795Z,55943.31
2022-12-11T23:29:10.278Z,55889.59
2022-12-11T23:31:38.681Z,55913.47
2022-12-11T23:34:07.074Z,55913.47
2022-12-11T23:36:36.960Z,55893.56
2022-12-11T23:39:05.577Z,55933.38
2022-12-11T23:41:34.017Z,56012.94
2022-12-11T23:44:02.389Z,56048.75
2022-12-11T23:46:30.991Z,56040.78
2022-12-11T23:48:59.285Z,56112.41
2022-12-11T23:51:27.709Z,56116.41
2022-12-11T23:53:57.395Z,56104.47
2022-12-11T23:56:28.437Z,56092.53
2022-12-11T23:58:57.787Z,56168.13
